Map

Track Data

SID SEASON NUMBER BASIN SUBBASIN NAME ISO_TIME NATURE LAT LON WMO_WIND WMO_PRES WMO_AGENCY TRACK_TYPE DIST2LAND LANDFALL IFLAG USA_AGENCY USA_ATCF_ID USA_LAT USA_LON USA_RECORD USA_STATUS USA_WIND USA_PRES USA_SSHS USA_R34_NE USA_R34_SE USA_R34_SW USA_R34_NW USA_R50_NE USA_R50_SE USA_R50_SW USA_R50_NW USA_R64_NE USA_R64_SE USA_R64_SW USA_R64_NW USA_POCI USA_ROCI USA_RMW USA_EYE TOKYO_LAT TOKYO_LON TOKYO_GRADE TOKYO_WIND TOKYO_PRES TOKYO_R50_DIR TOKYO_R50_LONG TOKYO_R50_SHORT TOKYO_R30_DIR TOKYO_R30_LONG TOKYO_R30_SHORT TOKYO_LAND CMA_LAT CMA_LON CMA_CAT CMA_WIND CMA_PRES HKO_LAT HKO_LON HKO_CAT HKO_WIND HKO_PRES NEWDELHI_LAT NEWDELHI_LON NEWDELHI_GRADE NEWDELHI_WIND NEWDELHI_PRES NEWDELHI_CI NEWDELHI_DP NEWDELHI_POCI REUNION_LAT REUNION_LON REUNION_TYPE REUNION_WIND REUNION_PRES REUNION_TNUM REUNION_CI REUNION_RMW REUNION_R34_NE REUNION_R34_SE REUNION_R34_SW REUNION_R34_NW REUNION_R50_NE REUNION_R50_SE REUNION_R50_SW REUNION_R50_NW REUNION_R64_NE REUNION_R64_SE REUNION_R64_SW REUNION_R64_NW BOM_LAT BOM_LON BOM_TYPE BOM_WIND BOM_PRES BOM_TNUM BOM_CI BOM_RMW BOM_R34_NE BOM_R34_SE BOM_R34_SW BOM_R34_NW BOM_R50_NE BOM_R50_SE BOM_R50_SW BOM_R50_NW BOM_R64_NE BOM_R64_SE BOM_R64_SW BOM_R64_NW BOM_ROCI BOM_POCI BOM_EYE BOM_POS_METHOD BOM_PRES_METHOD NADI_LAT NADI_LON NADI_CAT NADI_WIND NADI_PRES WELLINGTON_LAT WELLINGTON_LON WELLINGTON_WIND WELLINGTON_PRES DS824_LAT DS824_LON DS824_STAGE DS824_WIND DS824_PRES TD9636_LAT TD9636_LON TD9636_STAGE TD9636_WIND TD9636_PRES TD9635_LAT TD9635_LON TD9635_WIND TD9635_PRES TD9635_ROCI NEUMANN_LAT NEUMANN_LON NEUMANN_CLASS NEUMANN_WIND NEUMANN_PRES MLC_LAT MLC_LON MLC_CLASS MLC_WIND MLC_PRES USA_GUST BOM_GUST BOM_GUST_PER REUNION_GUST REUNION_GUST_PER USA_SEAHGT USA_SEARAD_NE USA_SEARAD_SE USA_SEARAD_SW USA_SEARAD_NW STORM_SPEED STORM_DIR
1893262N17128 1893 45 WP MM NOT_NAMED 1893-09-18 16:00:00 NR 17.0000 127.800 main 503 443 __________O___ -1 17.0000 127.800 7 52 313
1893262N17128 1893 45 WP MM NOT_NAMED 1893-09-18 18:00:00 NR 18.1874 126.488 main 443 294 __________P___ -1 18.1874 126.488 7 51 313
1893262N17128 1893 45 WP MM NOT_NAMED 1893-09-18 21:00:00 NR 19.8796 124.568 main 294 204 __________P___ -1 19.8796 124.568 7 47 313
1893262N17128 1893 45 WP MM NOT_NAMED 1893-09-19 00:00:00 NR 21.3571 122.840 main 204 52 __________P___ -1 21.3571 122.840 7 39 312
1893262N17128 1893 45 WP MM NOT_NAMED 1893-09-19 03:00:00 NR 22.5074 121.457 main 52 10 __________P___ -1 22.5074 121.457 7 33 312
1893262N17128 1893 45 WP MM NOT_NAMED 1893-09-19 04:00:00 NR 22.8000 121.100 main 0 0 __________O___ -1 22.8000 121.100 4 22 312
1893262N17128 1893 45 WP MM NOT_NAMED 1893-09-19 06:00:00 NR 23.2399 120.562 main 0 0 __________P___ -1 23.2399 120.562 4 15 312
1893262N17128 1893 45 WP MM NOT_NAMED 1893-09-19 09:00:00 NR 23.6185 120.122 main 0 0 __________P___ -1 23.6185 120.122 4 8 317
1893262N17128 1893 45 WP MM NOT_NAMED 1893-09-19 12:00:00 NR 23.7997 119.984 main 23 23 __________P___ -1 23.7997 119.984 4 3 340
1893262N17128 1893 45 WP MM NOT_NAMED 1893-09-19 15:00:00 NR 23.9374 119.992 main 30 30 __________P___ -1 23.9374 119.992 4 3 7
1893262N17128 1893 45 WP MM NOT_NAMED 1893-09-19 16:00:00 NR 24.0000 120.000 main 30 30 __________O___ -1 24.0000 120.000 4 7 346
1893262N17128 1893 45 WP MM NOT_NAMED 1893-09-19 18:00:00 NR 24.2650 119.901 main 52 52 __________P___ -1 24.2650 119.901 4 9 346
1893262N17128 1893 45 WP MM NOT_NAMED 1893-09-19 21:00:00 NR 24.6946 119.804 main 70 24 __________P___ -1 24.6946 119.804 4 9 351
1893262N17128 1893 45 WP MM NOT_NAMED 1893-09-20 00:00:00 NR 25.1375 119.748 main 24 0 __________P___ -1 25.1375 119.748 4 9 355
1893262N17128 1893 45 WP MM NOT_NAMED 1893-09-20 03:00:00 NR 25.5655 119.712 main 15 10 __________P___ -1 25.5655 119.712 4 9 356
1893262N17128 1893 45 WP MM NOT_NAMED 1893-09-20 04:00:00 NR 25.7000 119.700 main 10 0 __________O___ -1 25.7000 119.700 4 8 355
1893262N17128 1893 45 WP MM NOT_NAMED 1893-09-20 06:00:00 NR 25.9394 119.668 main 0 0 __________P___ -1 25.9394 119.668 4 7 353
1893262N17128 1893 45 WP MM NOT_NAMED 1893-09-20 09:00:00 NR 26.2734 119.628 main 0 0 __________P___ -1 26.2734 119.628 4 7 353
1893262N17128 1893 45 WP MM NOT_NAMED 1893-09-20 12:00:00 NR 26.5883 119.584 main 9 0 __________P___ -1 26.5883 119.584 4 6 352
1893262N17128 1893 45 WP MM NOT_NAMED 1893-09-20 15:00:00 NR 26.8966 119.525 main 0 0 __________P___ -1 26.8966 119.525 4 6 350
1893262N17128 1893 45 WP MM NOT_NAMED 1893-09-20 16:00:00 NR 27.0000 119.500 main 0 0 __________O___ -1 27.0000 119.500 4 6 345
1893262N17128 1893 45 WP MM NOT_NAMED 1893-09-20 18:00:00 NR 27.2100 119.439 main 0 0 __________P___ -1 27.2100 119.439 4 7 344
1893262N17128 1893 45 WP MM NOT_NAMED 1893-09-20 21:00:00 NR 27.5316 119.326 main 0 0 __________P___ -1 27.5316 119.326 4 7 342
1893262N17128 1893 45 WP MM NOT_NAMED 1893-09-21 00:00:00 NR 27.8590 119.193 main 0 0 __________P___ -1 27.8590 119.193 4 7 340
1893262N17128 1893 45 WP MM NOT_NAMED 1893-09-21 03:00:00 NR 28.1895 119.049 main 0 0 __________P___ -1 28.1895 119.049 4 7 339
1893262N17128 1893 45 WP MM NOT_NAMED 1893-09-21 04:00:00 NR 28.3000 119.000 main 0 __________O___ -1 28.3000 119.000 7 7 339

Digital Typhoon Data and Search

About IBTrACS Database

This database is a web-friendly format of International Best Track Archive for Climate Stewardship (IBTrACS), a global best track data archive curated by NOAA dating back to 1842.

Updated: 2021-12-03